sensor_id;sensor_type;location;lat;lon;timestamp;pressure;altitude;pressure_sealevel;temperature;humidity
34328;BME280;20588;48.840;10.064;2023-03-14T00:02:10;95041.41;;;9.64;nan
34328;BME280;20588;48.840;10.064;2023-03-14T00:04:36;95047.50;;;9.58;nan
34328;BME280;20588;48.840;10.064;2023-03-14T00:07:02;95054.31;;;9.69;nan
34328;BME280;20588;48.840;10.064;2023-03-14T00:09:28;95052.16;;;9.61;nan
34328;BME280;20588;48.840;10.064;2023-03-14T00:11:56;95057.03;;;9.57;nan
34328;BME280;20588;48.840;10.064;2023-03-14T00:14:22;95034.16;;;9.56;nan
34328;BME280;20588;48.840;10.064;2023-03-14T00:16:49;94996.28;;;9.68;nan
34328;BME280;20588;48.840;10.064;2023-03-14T00:19:15;94951.34;;;9.70;nan
34328;BME280;20588;48.840;10.064;2023-03-14T00:21:41;94942.28;;;9.63;nan
34328;BME280;20588;48.840;10.064;2023-03-14T00:24:08;94935.13;;;9.65;nan
34328;BME280;20588;48.840;10.064;2023-03-14T00:26:34;94936.97;;;9.69;nan
34328;BME280;20588;48.840;10.064;2023-03-14T00:29:00;94929.53;;;9.73;nan
34328;BME280;20588;48.840;10.064;2023-03-14T00:31:26;94914.91;;;9.73;nan
34328;BME280;20588;48.840;10.064;2023-03-14T00:33:53;94922.84;;;9.72;nan
34328;BME280;20588;48.840;10.064;2023-03-14T00:36:19;94920.53;;;9.70;nan
34328;BME280;20588;48.840;10.064;2023-03-14T00:38:50;94923.63;;;9.72;nan
34328;BME280;20588;48.840;10.064;2023-03-14T00:41:19;94922.13;;;9.76;nan
34328;BME280;20588;48.840;10.064;2023-03-14T00:43:46;94883.78;;;9.70;nan
34328;BME280;20588;48.840;10.064;2023-03-14T00:46:12;94865.31;;;9.68;nan
34328;BME280;20588;48.840;10.064;2023-03-14T00:48:39;94842.19;;;9.68;nan
34328;BME280;20588;48.840;10.064;2023-03-14T00:51:06;94820.88;;;9.67;nan
34328;BME280;20588;48.840;10.064;2023-03-14T00:53:36;94779.00;;;9.67;nan
34328;BME280;20588;48.840;10.064;2023-03-14T00:56:04;94733.78;;;9.66;nan
34328;BME280;20588;48.840;10.064;2023-03-14T00:58:31;94754.38;;;9.76;nan
34328;BME280;20588;48.840;10.064;2023-03-14T01:00:57;94773.84;;;9.67;nan
34328;BME280;20588;48.840;10.064;2023-03-14T01:03:23;94803.34;;;9.59;nan
34328;BME280;20588;48.840;10.064;2023-03-14T01:05:50;94818.47;;;9.56;nan
34328;BME280;20588;48.840;10.064;2023-03-14T01:08:16;94850.78;;;9.52;nan
34328;BME280;20588;48.840;10.064;2023-03-14T01:10:42;94847.16;;;9.48;nan
34328;BME280;20588;48.840;10.064;2023-03-14T01:13:09;94857.38;;;9.43;nan
34328;BME280;20588;48.840;10.064;2023-03-14T01:15:36;94864.03;;;9.39;nan
34328;BME280;20588;48.840;10.064;2023-03-14T01:18:03;94871.19;;;9.37;nan
34328;BME280;20588;48.840;10.064;2023-03-14T01:20:29;94878.56;;;9.33;nan
34328;BME280;20588;48.840;10.064;2023-03-14T01:22:55;94870.38;;;9.31;nan
34328;BME280;20588;48.840;10.064;2023-03-14T01:25:21;94877.28;;;9.31;nan
34328;BME280;20588;48.840;10.064;2023-03-14T01:27:47;94879.84;;;9.31;nan
34328;BME280;20588;48.840;10.064;2023-03-14T01:30:14;94872.69;;;9.33;nan
34328;BME280;20588;48.840;10.064;2023-03-14T01:32:40;94862.19;;;9.34;nan
34328;BME280;20588;48.840;10.064;2023-03-14T01:35:06;94868.38;;;9.38;nan
34328;BME280;20588;48.840;10.064;2023-03-14T01:37:32;94857.38;;;9.43;nan
34328;BME280;20588;48.840;10.064;2023-03-14T01:39:59;94858.63;;;9.40;nan
34328;BME280;20588;48.840;10.064;2023-03-14T01:42:25;94841.44;;;9.41;nan
34328;BME280;20588;48.840;10.064;2023-03-14T01:44:59;94835.81;;;9.44;nan
34328;BME280;20588;48.840;10.064;2023-03-14T01:47:26;94825.03;;;9.42;nan
34328;BME280;20588;48.840;10.064;2023-03-14T01:49:59;94812.25;;;9.52;nan
34328;BME280;20588;48.840;10.064;2023-03-14T01:52:39;94812.75;;;9.49;nan
34328;BME280;20588;48.840;10.064;2023-03-14T01:55:14;94810.97;;;9.49;nan
34328;BME280;20588;48.840;10.064;2023-03-14T01:57:50;94805.88;;;9.54;nan
34328;BME280;20588;48.840;10.064;2023-03-14T02:00:21;94807.13;;;9.52;nan
34328;BME280;20588;48.840;10.064;2023-03-14T02:02:56;94808.44;;;9.54;nan
34328;BME280;20588;48.840;10.064;2023-03-14T02:05:27;94795.63;;;9.54;nan
34328;BME280;20588;48.840;10.064;2023-03-14T02:07:59;94798.19;;;9.54;nan
34328;BME280;20588;48.840;10.064;2023-03-14T02:10:28;94789.16;;;9.52;nan
34328;BME280;20588;48.840;10.064;2023-03-14T02:12:57;94780.41;;;9.53;nan
34328;BME280;20588;48.840;10.064;2023-03-14T02:15:25;94780.91;;;9.50;nan
34328;BME280;20588;48.840;10.064;2023-03-14T02:17:52;94773.53;;;9.58;nan
34328;BME280;20588;48.840;10.064;2023-03-14T02:23:17;94759.53;;;9.39;nan
34328;BME280;20588;48.840;10.064;2023-03-14T02:25:56;94756.94;;;9.34;nan
34328;BME280;20588;48.840;10.064;2023-03-14T02:28:23;94750.72;;;9.30;nan
34328;BME280;20588;48.840;10.064;2023-03-14T02:30:50;94748.16;;;9.25;nan
34328;BME280;20588;48.840;10.064;2023-03-14T02:33:19;94767.94;;;9.30;nan
34328;BME280;20588;48.840;10.064;2023-03-14T02:41:39;94769.69;;;9.24;nan
34328;BME280;20588;48.840;10.064;2023-03-14T02:44:05;94766.88;;;9.26;nan
34328;BME280;20588;48.840;10.064;2023-03-14T02:46:31;94771.75;;;9.22;nan
34328;BME280;20588;48.840;10.064;2023-03-14T02:49:08;94758.38;;;9.20;nan
34328;BME280;20588;48.840;10.064;2023-03-14T02:51:36;94748.88;;;9.21;nan
34328;BME280;20588;48.840;10.064;2023-03-14T02:54:03;94745.09;;;9.28;nan
34328;BME280;20588;48.840;10.064;2023-03-14T02:56:29;94738.16;;;9.29;nan
34328;BME280;20588;48.840;10.064;2023-03-14T02:58:55;94724.88;;;9.37;nan
34328;BME280;20588;48.840;10.064;2023-03-14T03:01:23;94725.66;;;9.37;nan
34328;BME280;20588;48.840;10.064;2023-03-14T03:03:49;94730.00;;;9.37;nan
34328;BME280;20588;48.840;10.064;2023-03-14T03:06:16;94734.09;;;9.38;nan
34328;BME280;20588;48.840;10.064;2023-03-14T03:08:42;94722.09;;;9.43;nan
34328;BME280;20588;48.840;10.064;2023-03-14T03:11:08;94725.72;;;9.47;nan
34328;BME280;20588;48.840;10.064;2023-03-14T03:13:34;94726.50;;;9.48;nan
34328;BME280;20588;48.840;10.064;2023-03-14T03:16:01;94732.72;;;9.57;nan
34328;BME280;20588;48.840;10.064;2023-03-14T03:18:27;94725.75;;;9.52;nan
34328;BME280;20588;48.840;10.064;2023-03-14T03:20:53;94717.28;;;9.52;nan
34328;BME280;20588;48.840;10.064;2023-03-14T03:23:19;94713.44;;;9.54;nan
34328;BME280;20588;48.840;10.064;2023-03-14T03:25:49;94707.03;;;9.57;nan
34328;BME280;20588;48.840;10.064;2023-03-14T03:28:15;94707.78;;;9.52;nan
34328;BME280;20588;48.840;10.064;2023-03-14T03:30:42;94706.47;;;9.50;nan
34328;BME280;20588;48.840;10.064;2023-03-14T03:33:09;94683.59;;;9.48;nan
34328;BME280;20588;48.840;10.064;2023-03-14T03:35:41;94677.72;;;9.48;nan
34328;BME280;20588;48.840;10.064;2023-03-14T03:38:07;94667.16;;;9.44;nan
34328;BME280;20588;48.840;10.064;2023-03-14T03:40:33;94663.81;;;9.44;nan
34328;BME280;20588;48.840;10.064;2023-03-14T03:42:59;94668.94;;;9.44;nan
34328;BME280;20588;48.840;10.064;2023-03-14T03:45:26;94672.03;;;9.46;nan
34328;BME280;20588;48.840;10.064;2023-03-14T03:47:52;94679.22;;;9.44;nan
34328;BME280;20588;48.840;10.064;2023-03-14T03:50:18;94685.44;;;9.53;nan
34328;BME280;20588;48.840;10.064;2023-03-14T03:52:44;94680.78;;;9.50;nan
34328;BME280;20588;48.840;10.064;2023-03-14T03:55:10;94675.69;;;9.55;nan
34328;BME280;20588;48.840;10.064;2023-03-14T03:57:36;94663.63;;;9.55;nan
34328;BME280;20588;48.840;10.064;2023-03-14T04:00:03;94667.47;;;9.53;nan
34328;BME280;20588;48.840;10.064;2023-03-14T04:02:31;94653.63;;;9.54;nan
34328;BME280;20588;48.840;10.064;2023-03-14T04:04:57;94659.00;;;9.52;nan
34328;BME280;20588;48.840;10.064;2023-03-14T04:07:23;94653.63;;;9.54;nan
34328;BME280;20588;48.840;10.064;2023-03-14T04:09:49;94657.69;;;9.50;nan
34328;BME280;20588;48.840;10.064;2023-03-14T04:12:15;94643.06;;;9.50;nan
34328;BME280;20588;48.840;10.064;2023-03-14T04:14:41;94658.72;;;9.49;nan
34328;BME280;20588;48.840;10.064;2023-03-14T04:17:07;94660.25;;;9.50;nan
34328;BME280;20588;48.840;10.064;2023-03-14T04:19:34;94668.44;;;9.47;nan
34328;BME280;20588;48.840;10.064;2023-03-14T04:22:00;94662.28;;;9.43;nan
34328;BME280;20588;48.840;10.064;2023-03-14T04:24:26;94683.06;;;9.41;nan
34328;BME280;20588;48.840;10.064;2023-03-14T04:26:52;94676.16;;;9.42;nan
34328;BME280;20588;48.840;10.064;2023-03-14T04:29:18;94684.09;;;9.40;nan
34328;BME280;20588;48.840;10.064;2023-03-14T04:31:44;94680.75;;;9.40;nan
34328;BME280;20588;48.840;10.064;2023-03-14T04:34:10;94677.63;;;9.38;nan
34328;BME280;20588;48.840;10.064;2023-03-14T04:36:36;94683.03;;;9.36;nan
34328;BME280;20588;48.840;10.064;2023-03-14T04:39:02;94695.06;;;9.31;nan
34328;BME280;20588;48.840;10.064;2023-03-14T04:41:29;94693.03;;;9.33;nan
34328;BME280;20588;48.840;10.064;2023-03-14T04:43:56;94683.50;;;9.33;nan
34328;BME280;20588;48.840;10.064;2023-03-14T04:46:22;94675.56;;;9.35;nan
34328;BME280;20588;48.840;10.064;2023-03-14T04:48:48;94684.59;;;9.37;nan
34328;BME280;20588;48.840;10.064;2023-03-14T04:51:14;94673.28;;;9.38;nan
34328;BME280;20588;48.840;10.064;2023-03-14T04:53:40;94670.69;;;9.33;nan
34328;BME280;20588;48.840;10.064;2023-03-14T04:56:07;94671.41;;;9.29;nan
34328;BME280;20588;48.840;10.064;2023-03-14T04:58:33;94668.06;;;9.23;nan
34328;BME280;20588;48.840;10.064;2023-03-14T05:01:04;94666.78;;;9.21;nan
34328;BME280;20588;48.840;10.064;2023-03-14T05:03:30;94643.88;;;9.14;nan
34328;BME280;20588;48.840;10.064;2023-03-14T05:05:56;94645.16;;;9.11;nan
34328;BME280;20588;48.840;10.064;2023-03-14T05:08:24;94637.97;;;9.08;nan
34328;BME280;20588;48.840;10.064;2023-03-14T05:10:57;94626.63;;;9.04;nan
34328;BME280;20588;48.840;10.064;2023-03-14T05:13:23;94623.31;;;9.04;nan
34328;BME280;20588;48.840;10.064;2023-03-14T05:15:50;94614.28;;;9.01;nan
34328;BME280;20588;48.840;10.064;2023-03-14T05:18:17;94615.56;;;8.99;nan
34328;BME280;20588;48.840;10.064;2023-03-14T05:20:43;94610.94;;;8.96;nan
34328;BME280;20588;48.840;10.064;2023-03-14T05:23:09;94612.22;;;8.93;nan
34328;BME280;20588;48.840;10.064;2023-03-14T05:25:35;94605.75;;;8.91;nan
34328;BME280;20588;48.840;10.064;2023-03-14T05:28:01;94612.66;;;8.85;nan
34328;BME280;20588;48.840;10.064;2023-03-14T05:30:28;94600.81;;;8.79;nan
34328;BME280;20588;48.840;10.064;2023-03-14T05:32:54;94603.44;;;8.89;nan
34328;BME280;20588;48.840;10.064;2023-03-14T05:35:20;94603.19;;;8.86;nan
34328;BME280;20588;48.840;10.064;2023-03-14T05:37:46;94600.09;;;8.84;nan
34328;BME280;20588;48.840;10.064;2023-03-14T05:40:12;94599.31;;;8.83;nan
34328;BME280;20588;48.840;10.064;2023-03-14T05:42:38;94602.88;;;8.82;nan
34328;BME280;20588;48.840;10.064;2023-03-14T05:45:05;94595.69;;;8.79;nan
34328;BME280;20588;48.840;10.064;2023-03-14T05:47:31;94595.44;;;8.81;nan
34328;BME280;20588;48.840;10.064;2023-03-14T05:49:57;94594.13;;;8.78;nan
34328;BME280;20588;48.840;10.064;2023-03-14T05:52:23;94596.44;;;8.80;nan
34328;BME280;20588;48.840;10.064;2023-03-14T05:54:49;94577.50;;;8.81;nan
34328;BME280;20588;48.840;10.064;2023-03-14T05:57:15;94583.66;;;8.85;nan
34328;BME280;20588;48.840;10.064;2023-03-14T05:59:41;94589.31;;;8.87;nan
34328;BME280;20588;48.840;10.064;2023-03-14T06:02:07;94585.50;;;8.89;nan
34328;BME280;20588;48.840;10.064;2023-03-14T06:04:33;94587.31;;;8.94;nan
34328;BME280;20588;48.840;10.064;2023-03-14T06:06:59;94588.13;;;8.99;nan
34328;BME280;20588;48.840;10.064;2023-03-14T06:09:25;94580.44;;;9.04;nan
34328;BME280;20588;48.840;10.064;2023-03-14T06:11:51;94570.75;;;9.11;nan
34328;BME280;20588;48.840;10.064;2023-03-14T06:14:18;94574.91;;;9.23;nan
34328;BME280;20588;48.840;10.064;2023-03-14T06:16:44;94571.59;;;9.27;nan
34328;BME280;20588;48.840;10.064;2023-03-14T06:19:10;94573.69;;;9.35;nan
34328;BME280;20588;48.840;10.064;2023-03-14T06:21:37;94577.53;;;9.38;nan
34328;BME280;20588;48.840;10.064;2023-03-14T06:24:04;94579.13;;;9.49;nan
34328;BME280;20588;48.840;10.064;2023-03-14T06:26:30;94573.75;;;9.50;nan
34328;BME280;20588;48.840;10.064;2023-03-14T06:28:56;94565.28;;;9.55;nan
34328;BME280;20588;48.840;10.064;2023-03-14T06:31:22;94567.88;;;9.60;nan
34328;BME280;20588;48.840;10.064;2023-03-14T06:33:48;94555.34;;;9.63;nan
34328;BME280;20588;48.840;10.064;2023-03-14T06:36:14;94556.63;;;9.71;nan
34328;BME280;20588;48.840;10.064;2023-03-14T06:38:40;94553.31;;;9.75;nan
34328;BME280;20588;48.840;10.064;2023-03-14T06:41:07;94573.34;;;9.78;nan
34328;BME280;20588;48.840;10.064;2023-03-14T06:43:33;94580.28;;;9.83;nan
34328;BME280;20588;48.840;10.064;2023-03-14T06:46:00;94581.84;;;9.89;nan
34328;BME280;20588;48.840;10.064;2023-03-14T06:48:26;94587.50;;;9.96;nan
34328;BME280;20588;48.840;10.064;2023-03-14T06:50:52;94577.25;;;10.06;nan
34328;BME280;20588;48.840;10.064;2023-03-14T06:53:18;94581.41;;;10.17;nan
34328;BME280;20588;48.840;10.064;2023-03-14T06:55:45;94577.84;;;10.28;nan
34328;BME280;20588;48.840;10.064;2023-03-14T06:58:11;94587.38;;;10.37;nan
34328;BME280;20588;48.840;10.064;2023-03-14T07:00:37;94586.34;;;10.48;nan
34328;BME280;20588;48.840;10.064;2023-03-14T07:03:03;94583.78;;;10.58;nan
34328;BME280;20588;48.840;10.064;2023-03-14T07:05:30;94582.22;;;10.67;nan
34328;BME280;20588;48.840;10.064;2023-03-14T07:07:56;94576.81;;;10.74;nan
34328;BME280;20588;48.840;10.064;2023-03-14T07:10:22;94584.03;;;10.87;nan
34328;BME280;20588;48.840;10.064;2023-03-14T07:12:48;94585.78;;;11.02;nan
34328;BME280;20588;48.840;10.064;2023-03-14T07:15:15;94586.47;;;11.42;nan
34328;BME280;20588;48.840;10.064;2023-03-14T07:17:41;94590.00;;;11.71;nan
34328;BME280;20588;48.840;10.064;2023-03-14T07:20:07;94597.38;;;11.93;nan
34328;BME280;20588;48.840;10.064;2023-03-14T07:22:34;94597.41;;;12.31;nan
34328;BME280;20588;48.840;10.064;2023-03-14T07:25:01;94592.53;;;12.68;nan
34328;BME280;20588;48.840;10.064;2023-03-14T07:27:26;94601.50;;;13.10;nan
34328;BME280;20588;48.840;10.064;2023-03-14T07:29:53;94611.63;;;13.77;nan
34328;BME280;20588;48.840;10.064;2023-03-14T07:32:19;94609.97;;;14.65;nan
34328;BME280;20588;48.840;10.064;2023-03-14T07:34:45;94610.97;;;15.47;nan
34328;BME280;20588;48.840;10.064;2023-03-14T07:37:11;94615.47;;;16.09;nan
34328;BME280;20588;48.840;10.064;2023-03-14T07:39:37;94618.38;;;16.43;nan
34328;BME280;20588;48.840;10.064;2023-03-14T07:42:03;94622.47;;;16.22;nan
34328;BME280;20588;48.840;10.064;2023-03-14T07:44:29;94621.81;;;15.89;nan
34328;BME280;20588;48.840;10.064;2023-03-14T07:46:55;94623.94;;;15.28;nan
34328;BME280;20588;48.840;10.064;2023-03-14T07:49:21;94622.03;;;14.88;nan
34328;BME280;20588;48.840;10.064;2023-03-14T07:51:50;94623.69;;;14.47;nan
34328;BME280;20588;48.840;10.064;2023-03-14T07:54:16;94610.09;;;14.18;nan
34328;BME280;20588;48.840;10.064;2023-03-14T07:56:42;94607.53;;;14.36;nan
34328;BME280;20588;48.840;10.064;2023-03-14T07:59:08;94604.84;;;14.79;nan
34328;BME280;20588;48.840;10.064;2023-03-14T08:01:34;94604.75;;;15.75;nan
34328;BME280;20588;48.840;10.064;2023-03-14T08:04:00;94600.13;;;16.35;nan
34328;BME280;20588;48.840;10.064;2023-03-14T08:06:26;94603.56;;;16.79;nan
34328;BME280;20588;48.840;10.064;2023-03-14T08:08:52;94598.53;;;17.05;nan
34328;BME280;20588;48.840;10.064;2023-03-14T08:11:18;94600.59;;;17.47;nan
34328;BME280;20588;48.840;10.064;2023-03-14T08:13:44;94592.59;;;18.47;nan
34328;BME280;20588;48.840;10.064;2023-03-14T08:16:18;94592.19;;;19.25;nan
34328;BME280;20588;48.840;10.064;2023-03-14T08:18:45;94590.56;;;19.96;nan
34328;BME280;20588;48.840;10.064;2023-03-14T08:21:11;94593.44;;;20.53;nan
34328;BME280;20588;48.840;10.064;2023-03-14T08:23:37;94593.56;;;20.56;nan
34328;BME280;20588;48.840;10.064;2023-03-14T08:26:03;94599.69;;;21.46;nan
34328;BME280;20588;48.840;10.064;2023-03-14T08:28:30;94607.13;;;20.91;nan
34328;BME280;20588;48.840;10.064;2023-03-14T08:30:58;94604.41;;;21.77;nan
34328;BME280;20588;48.840;10.064;2023-03-14T08:33:26;94608.50;;;22.62;nan
34328;BME280;20588;48.840;10.064;2023-03-14T08:35:54;94609.00;;;22.79;nan
34328;BME280;20588;48.840;10.064;2023-03-14T08:38:20;94616.44;;;22.14;nan
34328;BME280;20588;48.840;10.064;2023-03-14T08:40:46;94615.72;;;21.12;nan
34328;BME280;20588;48.840;10.064;2023-03-14T08:43:12;94607.72;;;20.76;nan
34328;BME280;20588;48.840;10.064;2023-03-14T08:45:38;94616.72;;;20.46;nan
34328;BME280;20588;48.840;10.064;2023-03-14T08:48:05;94615.41;;;19.64;nan
34328;BME280;20588;48.840;10.064;2023-03-14T08:50:31;94616.75;;;19.24;nan
34328;BME280;20588;48.840;10.064;2023-03-14T08:52:57;94606.22;;;18.36;nan
34328;BME280;20588;48.840;10.064;2023-03-14T08:55:27;94610.25;;;17.94;nan
34328;BME280;20588;48.840;10.064;2023-03-14T08:57:53;94609.56;;;17.63;nan
34328;BME280;20588;48.840;10.064;2023-03-14T09:00:20;94599.47;;;17.39;nan
34328;BME280;20588;48.840;10.064;2023-03-14T09:02:46;94602.78;;;17.53;nan
34328;BME280;20588;48.840;10.064;2023-03-14T09:05:12;94594.31;;;17.87;nan
34328;BME280;20588;48.840;10.064;2023-03-14T09:07:39;94591.22;;;18.41;nan
34328;BME280;20588;48.840;10.064;2023-03-14T09:10:07;94599.63;;;18.89;nan
34328;BME280;20588;48.840;10.064;2023-03-14T09:12:34;94606.19;;;19.04;nan
34328;BME280;20588;48.840;10.064;2023-03-14T09:15:00;94607.44;;;18.89;nan
34328;BME280;20588;48.840;10.064;2023-03-14T09:17:26;94597.81;;;18.64;nan
34328;BME280;20588;48.840;10.064;2023-03-14T09:19:52;94594.69;;;18.96;nan
34328;BME280;20588;48.840;10.064;2023-03-14T09:22:18;94593.78;;;19.09;nan
34328;BME280;20588;48.840;10.064;2023-03-14T09:24:44;94591.41;;;19.42;nan
34328;BME280;20588;48.840;10.064;2023-03-14T09:27:10;94604.34;;;19.13;nan
34328;BME280;20588;48.840;10.064;2023-03-14T09:29:36;94599.34;;;18.65;nan
34328;BME280;20588;48.840;10.064;2023-03-14T09:32:02;94598.72;;;18.43;nan
34328;BME280;20588;48.840;10.064;2023-03-14T09:34:29;94590.41;;;18.32;nan
34328;BME280;20588;48.840;10.064;2023-03-14T09:36:55;94589.13;;;18.04;nan
34328;BME280;20588;48.840;10.064;2023-03-14T09:39:21;94582.72;;;17.93;nan
34328;BME280;20588;48.840;10.064;2023-03-14T09:41:49;94585.00;;;17.94;nan
34328;BME280;20588;48.840;10.064;2023-03-14T09:44:26;94586.31;;;18.48;nan
34328;BME280;20588;48.840;10.064;2023-03-14T09:46:55;94593.13;;;19.21;nan
34328;BME280;20588;48.840;10.064;2023-03-14T09:49:31;94596.84;;;19.66;nan
34328;BME280;20588;48.840;10.064;2023-03-14T09:52:10;94596.47;;;20.14;nan
34328;BME280;20588;48.840;10.064;2023-03-14T09:54:43;94587.66;;;20.47;nan
34328;BME280;20588;48.840;10.064;2023-03-14T09:57:15;94607.59;;;20.72;nan
34328;BME280;20588;48.840;10.064;2023-03-14T09:59:45;94591.28;;;20.55;nan
34328;BME280;20588;48.840;10.064;2023-03-14T10:02:15;94598.81;;;19.69;nan
34328;BME280;20588;48.840;10.064;2023-03-14T10:04:43;94592.44;;;18.86;nan
34328;BME280;20588;48.840;10.064;2023-03-14T10:07:16;94595.66;;;18.41;nan
34328;BME280;20588;48.840;10.064;2023-03-14T10:09:49;94605.25;;;18.15;nan
34328;BME280;20588;48.840;10.064;2023-03-14T10:12:17;94605.97;;;17.98;nan
34328;BME280;20588;48.840;10.064;2023-03-14T10:14:51;94596.34;;;18.07;nan
34328;BME280;20588;48.840;10.064;2023-03-14T10:17:20;94600.31;;;18.05;nan
34328;BME280;20588;48.840;10.064;2023-03-14T10:19:57;94596.44;;;18.41;nan
34328;BME280;20588;48.840;10.064;2023-03-14T10:22:28;94597.94;;;18.93;nan
34328;BME280;20588;48.840;10.064;2023-03-14T10:25:03;94592.00;;;19.47;nan
34328;BME280;20588;48.840;10.064;2023-03-14T10:27:32;94597.69;;;19.79;nan
34328;BME280;20588;48.840;10.064;2023-03-14T10:30:01;94596.59;;;19.88;nan
34328;BME280;20588;48.840;10.064;2023-03-14T10:32:36;94588.06;;;20.00;nan
34328;BME280;20588;48.840;10.064;2023-03-14T10:35:18;94597.13;;;20.31;nan
34328;BME280;20588;48.840;10.064;2023-03-14T10:37:57;94598.81;;;20.89;nan
34328;BME280;20588;48.840;10.064;2023-03-14T10:40:42;94607.16;;;20.70;nan
34328;BME280;20588;48.840;10.064;2023-03-14T10:43:17;94598.16;;;20.10;nan
34328;BME280;20588;48.840;10.064;2023-03-14T10:45:47;94598.81;;;20.07;nan
34328;BME280;20588;48.840;10.064;2023-03-14T10:48:23;94597.25;;;20.06;nan
34328;BME280;20588;48.840;10.064;2023-03-14T10:51:36;94619.25;;;20.05;nan
34328;BME280;20588;48.840;10.064;2023-03-14T10:56:18;94613.78;;;20.68;nan
34328;BME280;20588;48.840;10.064;2023-03-14T10:58:47;94619.81;;;19.81;nan
34328;BME280;20588;48.840;10.064;2023-03-14T11:04:21;94613.50;;;19.44;nan
34328;BME280;20588;48.840;10.064;2023-03-14T11:12:38;94611.78;;;20.65;nan
34328;BME280;20588;48.840;10.064;2023-03-14T11:28:44;94591.19;;;22.21;nan
34328;BME280;20588;48.840;10.064;2023-03-14T11:31:28;94604.09;;;22.26;nan
34328;BME280;20588;48.840;10.064;2023-03-14T11:34:17;94615.19;;;21.63;nan
34328;BME280;20588;48.840;10.064;2023-03-14T11:37:00;94604.81;;;21.10;nan
34328;BME280;20588;48.840;10.064;2023-03-14T11:39:38;94601.59;;;20.31;nan
34328;BME280;20588;48.840;10.064;2023-03-14T11:42:04;94612.28;;;20.09;nan
34328;BME280;20588;48.840;10.064;2023-03-14T11:44:38;94618.75;;;19.36;nan
34328;BME280;20588;48.840;10.064;2023-03-14T11:47:15;94635.03;;;18.90;nan
34328;BME280;20588;48.840;10.064;2023-03-14T11:50:19;94626.47;;;18.47;nan
34328;BME280;20588;48.840;10.064;2023-03-14T11:53:08;94639.56;;;17.38;nan
34328;BME280;20588;48.840;10.064;2023-03-14T11:55:37;94645.25;;;17.18;nan
34328;BME280;20588;48.840;10.064;2023-03-14T11:58:24;94644.47;;;17.18;nan
34328;BME280;20588;48.840;10.064;2023-03-14T12:00:53;94650.03;;;16.81;nan
34328;BME280;20588;48.840;10.064;2023-03-14T12:03:31;94649.28;;;16.45;nan
34328;BME280;20588;48.840;10.064;2023-03-14T12:06:40;94655.81;;;16.15;nan
34328;BME280;20588;48.840;10.064;2023-03-14T12:09:09;94663.81;;;15.91;nan
34328;BME280;20588;48.840;10.064;2023-03-14T12:11:50;94666.47;;;15.59;nan
34328;BME280;20588;48.840;10.064;2023-03-14T12:14:29;94664.63;;;15.14;nan
34328;BME280;20588;48.840;10.064;2023-03-14T12:24:20;94690.00;;;14.43;nan
34328;BME280;20588;48.840;10.064;2023-03-14T12:26:56;94682.75;;;14.21;nan
34328;BME280;20588;48.840;10.064;2023-03-14T12:29:23;94689.47;;;13.99;nan
34328;BME280;20588;48.840;10.064;2023-03-14T12:32:07;94683.00;;;13.78;nan
34328;BME280;20588;48.840;10.064;2023-03-14T12:34:43;94680.88;;;13.56;nan
34328;BME280;20588;48.840;10.064;2023-03-14T12:37:29;94679.97;;;13.42;nan
34328;BME280;20588;48.840;10.064;2023-03-14T12:40:26;94675.41;;;13.34;nan
34328;BME280;20588;48.840;10.064;2023-03-14T12:43:01;94690.25;;;13.19;nan
34328;BME280;20588;48.840;10.064;2023-03-14T12:45:30;94690.81;;;13.16;nan
34328;BME280;20588;48.840;10.064;2023-03-14T12:48:08;94692.44;;;12.97;nan
34328;BME280;20588;48.840;10.064;2023-03-14T12:55:45;94711.88;;;12.45;nan
34328;BME280;20588;48.840;10.064;2023-03-14T12:58:28;94712.44;;;12.32;nan
34328;BME280;20588;48.840;10.064;2023-03-14T13:01:01;94715.38;;;12.16;nan
34328;BME280;20588;48.840;10.064;2023-03-14T13:03:49;94716.94;;;12.07;nan
34328;BME280;20588;48.840;10.064;2023-03-14T13:12:10;94729.03;;;12.11;nan
34328;BME280;20588;48.840;10.064;2023-03-14T13:14:43;94722.56;;;12.19;nan
34328;BME280;20588;48.840;10.064;2023-03-14T13:17:12;94724.03;;;12.35;nan
34328;BME280;20588;48.840;10.064;2023-03-14T13:19:39;94730.78;;;12.31;nan
34328;BME280;20588;48.840;10.064;2023-03-14T13:22:13;94734.59;;;12.38;nan
34328;BME280;20588;48.840;10.064;2023-03-14T13:24:41;94743.91;;;12.34;nan
34328;BME280;20588;48.840;10.064;2023-03-14T13:27:26;94767.38;;;12.33;nan
34328;BME280;20588;48.840;10.064;2023-03-14T13:29:52;94782.63;;;12.19;nan
34328;BME280;20588;48.840;10.064;2023-03-14T13:32:27;94773.84;;;12.25;nan
34328;BME280;20588;48.840;10.064;2023-03-14T13:34:57;94824.38;;;12.41;nan
34328;BME280;20588;48.840;10.064;2023-03-14T13:37:25;94821.25;;;12.49;nan
34328;BME280;20588;48.840;10.064;2023-03-14T13:39:54;94846.28;;;12.44;nan
34328;BME280;20588;48.840;10.064;2023-03-14T13:42:24;94887.56;;;12.44;nan
34328;BME280;20588;48.840;10.064;2023-03-14T13:44:52;94909.53;;;12.06;nan
34328;BME280;20588;48.840;10.064;2023-03-14T13:47:21;94898.69;;;11.64;nan
34328;BME280;20588;48.840;10.064;2023-03-14T13:49:49;94902.25;;;11.53;nan
34328;BME280;20588;48.840;10.064;2023-03-14T13:52:29;94904.53;;;11.50;nan
34328;BME280;20588;48.840;10.064;2023-03-14T13:54:56;94908.41;;;11.57;nan
34328;BME280;20588;48.840;10.064;2023-03-14T13:57:23;94911.06;;;11.77;nan
34328;BME280;20588;48.840;10.064;2023-03-14T14:00:05;94926.00;;;12.45;nan
34328;BME280;20588;48.840;10.064;2023-03-14T14:02:33;94939.38;;;12.57;nan
34328;BME280;20588;48.840;10.064;2023-03-14T14:05:01;94953.63;;;12.40;nan
34328;BME280;20588;48.840;10.064;2023-03-14T14:07:28;94935.81;;;12.33;nan
34328;BME280;20588;48.840;10.064;2023-03-14T14:09:54;94956.97;;;12.20;nan
34328;BME280;20588;48.840;10.064;2023-03-14T14:12:27;94981.16;;;11.79;nan
34328;BME280;20588;48.840;10.064;2023-03-14T14:17:51;94978.44;;;11.34;nan
34328;BME280;20588;48.840;10.064;2023-03-14T14:20:26;94995.66;;;11.24;nan
34328;BME280;20588;48.840;10.064;2023-03-14T14:22:58;95012.16;;;11.33;nan